sensor_id;sensor_type;location;lat;lon;timestamp;P1;durP1;ratioP1;P2;durP2;ratioP2
12846;SDS011;6492;48.128;8.320;2024-03-23T00:52:26;3.50;;;2.80;;
12846;SDS011;6492;48.128;8.320;2024-03-23T00:56:28;4.27;;;3.30;;
12846;SDS011;6492;48.128;8.320;2024-03-23T01:00:28;5.20;;;3.13;;
12846;SDS011;6492;48.128;8.320;2024-03-23T01:04:30;6.83;;;3.10;;
12846;SDS011;6492;48.128;8.320;2024-03-23T01:08:32;4.93;;;3.33;;
12846;SDS011;6492;48.128;8.320;2024-03-23T01:12:34;3.40;;;3.00;;
12846;SDS011;6492;48.128;8.320;2024-03-23T01:16:35;3.50;;;3.00;;
12846;SDS011;6492;48.128;8.320;2024-03-23T01:20:37;3.83;;;3.23;;
12846;SDS011;6492;48.128;8.320;2024-03-23T01:24:40;4.43;;;2.93;;
12846;SDS011;6492;48.128;8.320;2024-03-23T01:28:41;3.87;;;2.80;;
12846;SDS011;6492;48.128;8.320;2024-03-23T01:32:45;6.33;;;3.70;;
12846;SDS011;6492;48.128;8.320;2024-03-23T01:36:47;3.30;;;3.00;;
12846;SDS011;6492;48.128;8.320;2024-03-23T01:40:50;4.83;;;3.43;;
12846;SDS011;6492;48.128;8.320;2024-03-23T01:44:58;4.67;;;3.40;;
12846;SDS011;6492;48.128;8.320;2024-03-23T01:48:59;5.37;;;3.30;;
12846;SDS011;6492;48.128;8.320;2024-03-23T01:53:01;4.83;;;3.07;;
12846;SDS011;6492;48.128;8.320;2024-03-23T01:57:06;4.13;;;3.37;;
12846;SDS011;6492;48.128;8.320;2024-03-23T02:01:08;5.67;;;4.03;;
12846;SDS011;6492;48.128;8.320;2024-03-23T02:05:10;4.53;;;3.30;;
12846;SDS011;6492;48.128;8.320;2024-03-23T02:09:12;3.50;;;3.13;;
12846;SDS011;6492;48.128;8.320;2024-03-23T02:13:15;5.73;;;3.37;;
12846;SDS011;6492;48.128;8.320;2024-03-23T02:17:17;4.23;;;3.60;;
12846;SDS011;6492;48.128;8.320;2024-03-23T02:21:19;5.70;;;3.23;;
12846;SDS011;6492;48.128;8.320;2024-03-23T02:25:22;4.40;;;3.30;;
12846;SDS011;6492;48.128;8.320;2024-03-23T02:29:24;3.63;;;3.33;;
12846;SDS011;6492;48.128;8.320;2024-03-23T02:33:25;3.87;;;3.07;;
12846;SDS011;6492;48.128;8.320;2024-03-23T02:37:27;4.87;;;3.67;;
12846;SDS011;6492;48.128;8.320;2024-03-23T02:41:30;3.80;;;3.13;;
12846;SDS011;6492;48.128;8.320;2024-03-23T02:45:32;3.43;;;3.13;;
12846;SDS011;6492;48.128;8.320;2024-03-23T02:49:34;4.80;;;3.20;;
12846;SDS011;6492;48.128;8.320;2024-03-23T02:53:34;3.03;;;2.73;;
12846;SDS011;6492;48.128;8.320;2024-03-23T02:57:38;4.57;;;2.83;;
12846;SDS011;6492;48.128;8.320;2024-03-23T03:01:39;3.50;;;3.00;;
12846;SDS011;6492;48.128;8.320;2024-03-23T03:05:41;4.60;;;2.47;;
12846;SDS011;6492;48.128;8.320;2024-03-23T03:09:43;3.87;;;2.60;;
12846;SDS011;6492;48.128;8.320;2024-03-23T03:13:46;3.13;;;2.53;;
12846;SDS011;6492;48.128;8.320;2024-03-23T03:17:48;3.00;;;2.43;;
12846;SDS011;6492;48.128;8.320;2024-03-23T03:21:50;5.40;;;2.70;;
12846;SDS011;6492;48.128;8.320;2024-03-23T03:25:51;3.90;;;3.23;;
12846;SDS011;6492;48.128;8.320;2024-03-23T03:29:54;3.73;;;2.60;;
12846;SDS011;6492;48.128;8.320;2024-03-23T03:33:56;3.37;;;3.07;;
12846;SDS011;6492;48.128;8.320;2024-03-23T03:37:58;3.63;;;2.90;;
12846;SDS011;6492;48.128;8.320;2024-03-23T03:42:00;3.40;;;3.10;;
12846;SDS011;6492;48.128;8.320;2024-03-23T03:46:07;4.57;;;3.30;;
12846;SDS011;6492;48.128;8.320;2024-03-23T03:50:10;4.90;;;3.27;;
12846;SDS011;6492;48.128;8.320;2024-03-23T03:54:12;4.60;;;3.10;;
12846;SDS011;6492;48.128;8.320;2024-03-23T03:58:14;6.33;;;3.87;;
12846;SDS011;6492;48.128;8.320;2024-03-23T04:02:16;4.23;;;3.37;;
12846;SDS011;6492;48.128;8.320;2024-03-23T04:06:18;4.80;;;3.23;;
12846;SDS011;6492;48.128;8.320;2024-03-23T04:10:20;5.50;;;3.33;;
12846;SDS011;6492;48.128;8.320;2024-03-23T04:14:22;4.87;;;3.20;;
12846;SDS011;6492;48.128;8.320;2024-03-23T04:18:25;5.20;;;3.40;;
12846;SDS011;6492;48.128;8.320;2024-03-23T04:22:27;4.20;;;3.70;;
12846;SDS011;6492;48.128;8.320;2024-03-23T04:26:29;4.80;;;3.50;;
12846;SDS011;6492;48.128;8.320;2024-03-23T04:30:31;5.13;;;3.80;;
12846;SDS011;6492;48.128;8.320;2024-03-23T04:34:34;5.37;;;4.43;;
12846;SDS011;6492;48.128;8.320;2024-03-23T04:38:36;5.00;;;4.10;;
12846;SDS011;6492;48.128;8.320;2024-03-23T04:42:37;4.87;;;4.37;;
12846;SDS011;6492;48.128;8.320;2024-03-23T04:46:39;4.80;;;3.93;;
12846;SDS011;6492;48.128;8.320;2024-03-23T04:50:42;5.00;;;4.10;;
12846;SDS011;6492;48.128;8.320;2024-03-23T04:54:44;6.37;;;4.30;;
12846;SDS011;6492;48.128;8.320;2024-03-23T04:58:46;4.97;;;4.27;;
12846;SDS011;6492;48.128;8.320;2024-03-23T05:02:48;4.33;;;3.93;;
12846;SDS011;6492;48.128;8.320;2024-03-23T05:06:51;6.70;;;4.70;;
12846;SDS011;6492;48.128;8.320;2024-03-23T05:10:53;5.27;;;4.73;;
12846;SDS011;6492;48.128;8.320;2024-03-23T05:14:55;5.50;;;3.37;;
12846;SDS011;6492;48.128;8.320;2024-03-23T05:18:57;2.57;;;2.37;;
12846;SDS011;6492;48.128;8.320;2024-03-23T05:23:00;1.90;;;1.70;;
12846;SDS011;6492;48.128;8.320;2024-03-23T05:27:01;1.93;;;1.80;;
12846;SDS011;6492;48.128;8.320;2024-03-23T05:31:03;2.73;;;2.47;;
12846;SDS011;6492;48.128;8.320;2024-03-23T05:35:06;3.97;;;3.10;;
12846;SDS011;6492;48.128;8.320;2024-03-23T05:39:09;4.23;;;3.83;;
12846;SDS011;6492;48.128;8.320;2024-03-23T05:43:11;5.30;;;4.43;;
12846;SDS011;6492;48.128;8.320;2024-03-23T05:47:12;5.57;;;4.80;;
12846;SDS011;6492;48.128;8.320;2024-03-23T05:51:16;6.43;;;5.20;;
12846;SDS011;6492;48.128;8.320;2024-03-23T05:55:19;8.80;;;6.40;;
12846;SDS011;6492;48.128;8.320;2024-03-23T05:59:21;8.20;;;6.57;;
12846;SDS011;6492;48.128;8.320;2024-03-23T06:03:22;8.93;;;7.30;;
12846;SDS011;6492;48.128;8.320;2024-03-23T06:07:24;10.43;;;7.70;;
12846;SDS011;6492;48.128;8.320;2024-03-23T06:11:27;7.93;;;6.60;;
12846;SDS011;6492;48.128;8.320;2024-03-23T06:15:29;9.13;;;7.23;;
12846;SDS011;6492;48.128;8.320;2024-03-23T06:19:31;11.27;;;8.33;;
12846;SDS011;6492;48.128;8.320;2024-03-23T06:23:33;14.33;;;9.23;;
12846;SDS011;6492;48.128;8.320;2024-03-23T06:27:36;13.87;;;10.20;;
12846;SDS011;6492;48.128;8.320;2024-03-23T06:31:39;15.43;;;9.07;;
12846;SDS011;6492;48.128;8.320;2024-03-23T06:35:40;10.53;;;6.47;;
12846;SDS011;6492;48.128;8.320;2024-03-23T06:39:42;5.53;;;3.80;;
12846;SDS011;6492;48.128;8.320;2024-03-23T06:43:48;3.37;;;2.10;;
12846;SDS011;6492;48.128;8.320;2024-03-23T06:47:49;2.40;;;1.80;;
12846;SDS011;6492;48.128;8.320;2024-03-23T06:51:50;1.37;;;1.27;;
12846;SDS011;6492;48.128;8.320;2024-03-23T06:55:52;0.80;;;0.80;;
12846;SDS011;6492;48.128;8.320;2024-03-23T06:59:55;1.00;;;0.90;;
12846;SDS011;6492;48.128;8.320;2024-03-23T07:03:57;1.00;;;0.70;;
12846;SDS011;6492;48.128;8.320;2024-03-23T07:07:59;1.03;;;0.80;;
12846;SDS011;6492;48.128;8.320;2024-03-23T07:12:01;0.60;;;0.60;;
12846;SDS011;6492;48.128;8.320;2024-03-23T07:16:04;0.83;;;0.70;;
12846;SDS011;6492;48.128;8.320;2024-03-23T07:20:06;0.70;;;0.60;;
12846;SDS011;6492;48.128;8.320;2024-03-23T07:24:10;0.73;;;0.73;;
12846;SDS011;6492;48.128;8.320;2024-03-23T07:28:12;0.70;;;0.70;;
12846;SDS011;6492;48.128;8.320;2024-03-23T07:32:16;0.70;;;0.70;;
12846;SDS011;6492;48.128;8.320;2024-03-23T07:36:17;0.70;;;0.70;;
12846;SDS011;6492;48.128;8.320;2024-03-23T07:40:19;1.10;;;1.00;;
12846;SDS011;6492;48.128;8.320;2024-03-23T07:44:21;0.60;;;0.60;;
12846;SDS011;6492;48.128;8.320;2024-03-23T07:48:24;2.40;;;2.20;;
12846;SDS011;6492;48.128;8.320;2024-03-23T07:52:27;0.80;;;0.80;;
12846;SDS011;6492;48.128;8.320;2024-03-23T07:56:29;0.80;;;0.80;;
12846;SDS011;6492;48.128;8.320;2024-03-23T08:00:32;1.30;;;1.20;;
12846;SDS011;6492;48.128;8.320;2024-03-23T08:04:36;3.43;;;1.27;;
12846;SDS011;6492;48.128;8.320;2024-03-23T08:08:38;2.67;;;1.67;;
12846;SDS011;6492;48.128;8.320;2024-03-23T08:12:40;1.77;;;1.57;;
12846;SDS011;6492;48.128;8.320;2024-03-23T08:16:42;2.30;;;1.77;;
12846;SDS011;6492;48.128;8.320;2024-03-23T08:20:56;2.77;;;2.00;;
12846;SDS011;6492;48.128;8.320;2024-03-23T08:24:58;5.23;;;2.30;;
12846;SDS011;6492;48.128;8.320;2024-03-23T08:29:00;3.43;;;2.23;;
12846;SDS011;6492;48.128;8.320;2024-03-23T08:33:01;5.33;;;2.90;;
12846;SDS011;6492;48.128;8.320;2024-03-23T08:37:05;4.97;;;2.47;;
12846;SDS011;6492;48.128;8.320;2024-03-23T08:41:07;6.17;;;2.67;;
12846;SDS011;6492;48.128;8.320;2024-03-23T08:45:09;6.63;;;4.10;;
12846;SDS011;6492;48.128;8.320;2024-03-23T08:49:10;5.87;;;3.30;;
12846;SDS011;6492;48.128;8.320;2024-03-23T08:53:16;5.53;;;3.53;;
12846;SDS011;6492;48.128;8.320;2024-03-23T08:57:17;5.27;;;3.70;;
12846;SDS011;6492;48.128;8.320;2024-03-23T09:01:19;5.57;;;3.13;;
12846;SDS011;6492;48.128;8.320;2024-03-23T09:05:21;8.53;;;3.17;;
12846;SDS011;6492;48.128;8.320;2024-03-23T09:09:25;4.23;;;3.33;;
12846;SDS011;6492;48.128;8.320;2024-03-23T09:13:27;6.53;;;3.40;;
12846;SDS011;6492;48.128;8.320;2024-03-23T09:17:29;8.47;;;4.10;;
12846;SDS011;6492;48.128;8.320;2024-03-23T09:21:30;8.53;;;4.03;;
12846;SDS011;6492;48.128;8.320;2024-03-23T09:25:37;8.87;;;4.67;;
12846;SDS011;6492;48.128;8.320;2024-03-23T09:29:39;5.43;;;3.83;;
12846;SDS011;6492;48.128;8.320;2024-03-23T09:33:41;8.13;;;3.97;;
12846;SDS011;6492;48.128;8.320;2024-03-23T09:37:43;8.43;;;4.07;;
12846;SDS011;6492;48.128;8.320;2024-03-23T09:41:47;5.97;;;4.33;;
12846;SDS011;6492;48.128;8.320;2024-03-23T09:45:49;7.97;;;4.43;;
12846;SDS011;6492;48.128;8.320;2024-03-23T09:49:51;8.37;;;4.10;;
12846;SDS011;6492;48.128;8.320;2024-03-23T09:53:53;7.30;;;4.10;;
12846;SDS011;6492;48.128;8.320;2024-03-23T09:57:56;8.20;;;4.03;;
12846;SDS011;6492;48.128;8.320;2024-03-23T10:01:59;11.50;;;5.50;;
12846;SDS011;6492;48.128;8.320;2024-03-23T10:06:01;9.37;;;3.90;;
12846;SDS011;6492;48.128;8.320;2024-03-23T10:10:10;6.30;;;3.83;;
12846;SDS011;6492;48.128;8.320;2024-03-23T10:14:13;8.73;;;4.10;;
12846;SDS011;6492;48.128;8.320;2024-03-23T10:18:29;6.53;;;3.90;;
12846;SDS011;6492;48.128;8.320;2024-03-23T10:22:34;4.10;;;3.23;;
12846;SDS011;6492;48.128;8.320;2024-03-23T10:26:38;8.60;;;3.87;;
12846;SDS011;6492;48.128;8.320;2024-03-23T10:30:43;7.53;;;3.83;;
12846;SDS011;6492;48.128;8.320;2024-03-23T10:34:45;7.43;;;3.20;;
12846;SDS011;6492;48.128;8.320;2024-03-23T10:38:47;7.67;;;3.37;;
12846;SDS011;6492;48.128;8.320;2024-03-23T10:42:50;6.33;;;3.30;;
12846;SDS011;6492;48.128;8.320;2024-03-23T10:46:58;9.00;;;3.57;;
12846;SDS011;6492;48.128;8.320;2024-03-23T10:51:02;4.27;;;3.03;;
12846;SDS011;6492;48.128;8.320;2024-03-23T10:55:05;3.97;;;3.17;;
12846;SDS011;6492;48.128;8.320;2024-03-23T10:59:09;6.40;;;3.23;;
12846;SDS011;6492;48.128;8.320;2024-03-23T11:07:36;4.97;;;3.00;;
12846;SDS011;6492;48.128;8.320;2024-03-23T11:11:38;7.40;;;3.30;;
12846;SDS011;6492;48.128;8.320;2024-03-23T11:15:41;2.40;;;1.70;;
12846;SDS011;6492;48.128;8.320;2024-03-23T11:19:44;1.20;;;1.10;;
12846;SDS011;6492;48.128;8.320;2024-03-23T11:23:53;0.80;;;0.80;;
12846;SDS011;6492;48.128;8.320;2024-03-23T11:27:55;2.10;;;1.20;;
12846;SDS011;6492;48.128;8.320;2024-03-23T11:31:58;1.87;;;1.30;;
12846;SDS011;6492;48.128;8.320;2024-03-23T11:36:05;3.07;;;1.97;;
12846;SDS011;6492;48.128;8.320;2024-03-23T11:40:17;4.57;;;2.20;;
12846;SDS011;6492;48.128;8.320;2024-03-23T11:44:19;5.37;;;2.43;;
12846;SDS011;6492;48.128;8.320;2024-03-23T11:48:23;7.40;;;2.73;;
12846;SDS011;6492;48.128;8.320;2024-03-23T11:52:27;5.10;;;3.20;;
12846;SDS011;6492;48.128;8.320;2024-03-23T11:56:28;5.93;;;2.80;;
12846;SDS011;6492;48.128;8.320;2024-03-23T12:00:30;8.47;;;2.97;;
12846;SDS011;6492;48.128;8.320;2024-03-23T12:04:32;7.70;;;3.77;;
12846;SDS011;6492;48.128;8.320;2024-03-23T12:08:37;10.27;;;3.70;;
12846;SDS011;6492;48.128;8.320;2024-03-23T12:12:39;9.00;;;3.03;;
12846;SDS011;6492;48.128;8.320;2024-03-23T12:16:40;5.10;;;2.70;;
12846;SDS011;6492;48.128;8.320;2024-03-23T12:20:41;7.17;;;3.13;;
12846;SDS011;6492;48.128;8.320;2024-03-23T12:24:44;4.57;;;2.97;;
12846;SDS011;6492;48.128;8.320;2024-03-23T12:28:46;6.33;;;3.10;;
12846;SDS011;6492;48.128;8.320;2024-03-23T12:32:48;5.53;;;2.57;;
12846;SDS011;6492;48.128;8.320;2024-03-23T12:36:50;8.87;;;2.83;;
12846;SDS011;6492;48.128;8.320;2024-03-23T12:44:57;3.70;;;2.27;;
12846;SDS011;6492;48.128;8.320;2024-03-23T12:48:59;6.00;;;2.53;;
12846;SDS011;6492;48.128;8.320;2024-03-23T12:53:01;6.43;;;2.30;;
12846;SDS011;6492;48.128;8.320;2024-03-23T12:57:04;6.30;;;2.30;;
12846;SDS011;6492;48.128;8.320;2024-03-23T13:01:06;4.87;;;1.97;;
12846;SDS011;6492;48.128;8.320;2024-03-23T13:05:08;4.37;;;2.80;;
12846;SDS011;6492;48.128;8.320;2024-03-23T13:09:10;3.27;;;1.83;;
12846;SDS011;6492;48.128;8.320;2024-03-23T13:13:13;4.10;;;2.23;;
12846;SDS011;6492;48.128;8.320;2024-03-23T13:17:14;2.70;;;1.97;;
12846;SDS011;6492;48.128;8.320;2024-03-23T13:21:16;3.60;;;1.50;;
12846;SDS011;6492;48.128;8.320;2024-03-23T13:25:30;3.87;;;2.10;;
12846;SDS011;6492;48.128;8.320;2024-03-23T13:29:34;5.50;;;1.90;;
12846;SDS011;6492;48.128;8.320;2024-03-23T13:33:37;6.83;;;2.63;;
12846;SDS011;6492;48.128;8.320;2024-03-23T13:37:40;5.10;;;2.10;;
12846;SDS011;6492;48.128;8.320;2024-03-23T13:41:42;2.80;;;1.97;;
12846;SDS011;6492;48.128;8.320;2024-03-23T13:45:46;3.93;;;2.00;;
12846;SDS011;6492;48.128;8.320;2024-03-23T13:49:48;4.10;;;2.00;;
12846;SDS011;6492;48.128;8.320;2024-03-23T13:53:50;3.50;;;2.07;;
12846;SDS011;6492;48.128;8.320;2024-03-23T13:57:52;5.30;;;2.20;;
12846;SDS011;6492;48.128;8.320;2024-03-23T14:01:55;4.57;;;1.90;;
12846;SDS011;6492;48.128;8.320;2024-03-23T14:05:57;5.23;;;2.00;;
12846;SDS011;6492;48.128;8.320;2024-03-23T14:10:02;4.00;;;2.27;;
12846;SDS011;6492;48.128;8.320;2024-03-23T14:14:03;3.00;;;1.60;;
12846;SDS011;6492;48.128;8.320;2024-03-23T14:18:06;4.97;;;1.73;;
12846;SDS011;6492;48.128;8.320;2024-03-23T14:22:09;5.40;;;1.97;;
12846;SDS011;6492;48.128;8.320;2024-03-23T14:26:11;3.10;;;1.60;;
12846;SDS011;6492;48.128;8.320;2024-03-23T14:30:13;6.53;;;2.00;;
12846;SDS011;6492;48.128;8.320;2024-03-23T14:34:16;8.67;;;2.83;;
12846;SDS011;6492;48.128;8.320;2024-03-23T14:38:18;5.60;;;2.57;;
12846;SDS011;6492;48.128;8.320;2024-03-23T14:42:19;6.10;;;1.90;;
12846;SDS011;6492;48.128;8.320;2024-03-23T14:46:21;6.77;;;2.17;;
12846;SDS011;6492;48.128;8.320;2024-03-23T14:50:25;4.53;;;1.80;;
12846;SDS011;6492;48.128;8.320;2024-03-23T14:54:26;4.57;;;2.17;;
12846;SDS011;6492;48.128;8.320;2024-03-23T14:58:27;2.83;;;1.57;;
12846;SDS011;6492;48.128;8.320;2024-03-23T15:02:29;5.53;;;2.10;;
12846;SDS011;6492;48.128;8.320;2024-03-23T15:06:33;3.73;;;2.30;;
12846;SDS011;6492;48.128;8.320;2024-03-23T15:10:35;3.73;;;1.67;;
12846;SDS011;6492;48.128;8.320;2024-03-23T15:14:37;4.33;;;2.20;;
12846;SDS011;6492;48.128;8.320;2024-03-23T15:18:38;4.50;;;2.10;;
12846;SDS011;6492;48.128;8.320;2024-03-23T15:22:43;5.70;;;2.20;;
12846;SDS011;6492;48.128;8.320;2024-03-23T15:26:44;7.60;;;1.97;;
12846;SDS011;6492;48.128;8.320;2024-03-23T15:30:46;4.17;;;1.90;;
12846;SDS011;6492;48.128;8.320;2024-03-23T15:34:48;4.10;;;2.07;;
12846;SDS011;6492;48.128;8.320;2024-03-23T15:38:51;4.97;;;2.10;;
12846;SDS011;6492;48.128;8.320;2024-03-23T15:42:54;3.57;;;2.00;;
12846;SDS011;6492;48.128;8.320;2024-03-23T15:46:56;5.80;;;2.23;;
12846;SDS011;6492;48.128;8.320;2024-03-23T15:50:59;4.83;;;2.50;;
12846;SDS011;6492;48.128;8.320;2024-03-23T15:55:04;8.10;;;2.20;;
12846;SDS011;6492;48.128;8.320;2024-03-23T15:59:06;2.77;;;1.90;;
12846;SDS011;6492;48.128;8.320;2024-03-23T16:03:08;2.30;;;1.90;;
12846;SDS011;6492;48.128;8.320;2024-03-23T16:07:10;2.77;;;1.10;;
12846;SDS011;6492;48.128;8.320;2024-03-23T16:11:14;1.20;;;1.10;;
12846;SDS011;6492;48.128;8.320;2024-03-23T16:15:17;2.97;;;2.03;;
12846;SDS011;6492;48.128;8.320;2024-03-23T16:19:19;3.10;;;2.80;;
12846;SDS011;6492;48.128;8.320;2024-03-23T16:23:22;2.00;;;1.50;;
12846;SDS011;6492;48.128;8.320;2024-03-23T16:27:25;1.30;;;1.20;;
12846;SDS011;6492;48.128;8.320;2024-03-23T16:31:27;1.70;;;1.10;;
12846;SDS011;6492;48.128;8.320;2024-03-23T16:35:29;1.90;;;1.47;;
12846;SDS011;6492;48.128;8.320;2024-03-23T16:39:31;2.13;;;1.70;;
12846;SDS011;6492;48.128;8.320;2024-03-23T16:43:34;3.10;;;1.77;;
12846;SDS011;6492;48.128;8.320;2024-03-23T16:47:37;1.70;;;1.33;;
12846;SDS011;6492;48.128;8.320;2024-03-23T16:51:40;1.50;;;1.10;;
12846;SDS011;6492;48.128;8.320;2024-03-23T16:55:43;3.23;;;0.93;;
12846;SDS011;6492;48.128;8.320;2024-03-23T16:59:46;4.33;;;1.60;;
12846;SDS011;6492;48.128;8.320;2024-03-23T17:03:48;2.57;;;1.30;;
12846;SDS011;6492;48.128;8.320;2024-03-23T17:07:51;4.03;;;1.30;;
12846;SDS011;6492;48.128;8.320;2024-03-23T17:11:53;2.57;;;1.07;;
12846;SDS011;6492;48.128;8.320;2024-03-23T17:15:56;3.03;;;1.80;;
12846;SDS011;6492;48.128;8.320;2024-03-23T17:19:58;2.00;;;1.03;;
12846;SDS011;6492;48.128;8.320;2024-03-23T17:24:00;1.17;;;0.97;;
12846;SDS011;6492;48.128;8.320;2024-03-23T17:28:02;2.47;;;1.10;;
12846;SDS011;6492;48.128;8.320;2024-03-23T17:32:06;2.57;;;1.43;;
12846;SDS011;6492;48.128;8.320;2024-03-23T17:36:08;0.83;;;0.80;;
12846;SDS011;6492;48.128;8.320;2024-03-23T17:40:10;1.47;;;1.33;;
12846;SDS011;6492;48.128;8.320;2024-03-23T17:44:13;2.53;;;1.23;;
12846;SDS011;6492;48.128;8.320;2024-03-23T17:48:19;2.50;;;1.10;;
12846;SDS011;6492;48.128;8.320;2024-03-23T17:52:19;2.40;;;1.30;;
12846;SDS011;6492;48.128;8.320;2024-03-23T17:56:22;0.77;;;0.77;;
12846;SDS011;6492;48.128;8.320;2024-03-23T18:00:24;1.20;;;1.10;;
12846;SDS011;6492;48.128;8.320;2024-03-23T18:04:27;1.70;;;1.20;;
12846;SDS011;6492;48.128;8.320;2024-03-23T18:08:29;0.60;;;0.60;;
12846;SDS011;6492;48.128;8.320;2024-03-23T18:12:31;1.77;;;1.10;;
12846;SDS011;6492;48.128;8.320;2024-03-23T18:16:33;2.13;;;1.20;;
12846;SDS011;6492;48.128;8.320;2024-03-23T18:20:37;3.47;;;2.00;;
12846;SDS011;6492;48.128;8.320;2024-03-23T18:24:38;2.23;;;1.77;;
12846;SDS011;6492;48.128;8.320;2024-03-23T18:28:40;2.03;;;1.83;;
12846;SDS011;6492;48.128;8.320;2024-03-23T18:32:41;3.37;;;1.20;;
12846;SDS011;6492;48.128;8.320;2024-03-23T18:36:44;2.10;;;1.23;;
12846;SDS011;6492;48.128;8.320;2024-03-23T18:40:46;2.33;;;1.40;;
12846;SDS011;6492;48.128;8.320;2024-03-23T18:44:49;2.27;;;1.80;;
12846;SDS011;6492;48.128;8.320;2024-03-23T18:48:50;3.37;;;1.70;;
12846;SDS011;6492;48.128;8.320;2024-03-23T18:52:53;3.00;;;1.07;;
12846;SDS011;6492;48.128;8.320;2024-03-23T18:56:55;1.70;;;1.10;;
12846;SDS011;6492;48.128;8.320;2024-03-23T19:00:58;4.67;;;1.50;;
12846;SDS011;6492;48.128;8.320;2024-03-23T19:04:59;2.67;;;2.37;;
12846;SDS011;6492;48.128;8.320;2024-03-23T19:09:03;1.73;;;1.20;;
12846;SDS011;6492;48.128;8.320;2024-03-23T19:13:04;2.70;;;1.90;;
12846;SDS011;6492;48.128;8.320;2024-03-23T19:17:07;2.23;;;1.30;;
12846;SDS011;6492;48.128;8.320;2024-03-23T19:21:09;1.10;;;1.00;;
12846;SDS011;6492;48.128;8.320;2024-03-23T19:25:12;2.80;;;1.63;;
12846;SDS011;6492;48.128;8.320;2024-03-23T19:29:16;2.17;;;1.97;;
12846;SDS011;6492;48.128;8.320;2024-03-23T19:33:18;2.13;;;1.63;;
12846;SDS011;6492;48.128;8.320;2024-03-23T19:37:22;2.40;;;1.70;;
12846;SDS011;6492;48.128;8.320;2024-03-23T19:41:25;1.17;;;1.07;;
12846;SDS011;6492;48.128;8.320;2024-03-23T19:45:27;1.37;;;1.27;;
12846;SDS011;6492;48.128;8.320;2024-03-23T19:49:30;2.00;;;1.30;;
12846;SDS011;6492;48.128;8.320;2024-03-23T19:53:31;1.83;;;1.20;;
12846;SDS011;6492;48.128;8.320;2024-03-23T19:57:34;1.87;;;1.67;;
12846;SDS011;6492;48.128;8.320;2024-03-23T20:01:36;1.87;;;1.23;;
12846;SDS011;6492;48.128;8.320;2024-03-23T20:05:38;1.10;;;1.00;;
12846;SDS011;6492;48.128;8.320;2024-03-23T20:09:40;1.57;;;1.20;;
12846;SDS011;6492;48.128;8.320;2024-03-23T20:13:42;1.10;;;1.10;;
12846;SDS011;6492;48.128;8.320;2024-03-23T20:17:44;1.00;;;0.90;;
12846;SDS011;6492;48.128;8.320;2024-03-23T20:21:47;1.33;;;0.70;;
12846;SDS011;6492;48.128;8.320;2024-03-23T20:25:50;1.73;;;1.63;;
12846;SDS011;6492;48.128;8.320;2024-03-23T20:29:53;0.77;;;0.77;;
12846;SDS011;6492;48.128;8.320;2024-03-23T20:33:55;0.53;;;0.53;;
12846;SDS011;6492;48.128;8.320;2024-03-23T20:37:57;1.20;;;0.87;;
12846;SDS011;6492;48.128;8.320;2024-03-23T20:41:58;2.43;;;0.90;;
12846;SDS011;6492;48.128;8.320;2024-03-23T20:46:02;0.60;;;0.60;;
12846;SDS011;6492;48.128;8.320;2024-03-23T20:50:05;0.70;;;0.70;;
12846;SDS011;6492;48.128;8.320;2024-03-23T20:54:10;0.80;;;0.80;;
12846;SDS011;6492;48.128;8.320;2024-03-23T20:58:13;0.93;;;0.70;;
12846;SDS011;6492;48.128;8.320;2024-03-23T21:02:16;0.60;;;0.60;;
12846;SDS011;6492;48.128;8.320;2024-03-23T21:06:17;1.33;;;1.00;;
12846;SDS011;6492;48.128;8.320;2024-03-23T21:10:19;1.43;;;1.27;;
12846;SDS011;6492;48.128;8.320;2024-03-23T21:14:21;2.57;;;1.80;;
12846;SDS011;6492;48.128;8.320;2024-03-23T21:18:26;8.73;;;2.57;;
12846;SDS011;6492;48.128;8.320;2024-03-23T21:22:28;6.97;;;2.50;;
12846;SDS011;6492;48.128;8.320;2024-03-23T21:26:29;3.30;;;1.13;;
12846;SDS011;6492;48.128;8.320;2024-03-23T21:30:32;1.93;;;1.40;;
12846;SDS011;6492;48.128;8.320;2024-03-23T21:34:37;1.37;;;1.07;;
12846;SDS011;6492;48.128;8.320;2024-03-23T21:38:39;2.97;;;1.10;;
12846;SDS011;6492;48.128;8.320;2024-03-23T21:42:41;1.07;;;0.97;;
12846;SDS011;6492;48.128;8.320;2024-03-23T21:46:44;1.90;;;1.10;;
12846;SDS011;6492;48.128;8.320;2024-03-23T21:50:47;1.20;;;1.10;;
12846;SDS011;6492;48.128;8.320;2024-03-23T21:54:50;1.80;;;1.27;;
12846;SDS011;6492;48.128;8.320;2024-03-23T21:58:53;1.30;;;1.20;;
12846;SDS011;6492;48.128;8.320;2024-03-23T22:02:55;4.60;;;1.70;;
12846;SDS011;6492;48.128;8.320;2024-03-23T22:06:58;1.60;;;1.50;;
12846;SDS011;6492;48.128;8.320;2024-03-23T22:11:00;3.40;;;1.47;;
12846;SDS011;6492;48.128;8.320;2024-03-23T22:15:02;1.63;;;1.20;;
12846;SDS011;6492;48.128;8.320;2024-03-23T22:19:04;2.53;;;1.30;;
12846;SDS011;6492;48.128;8.320;2024-03-23T22:23:07;1.93;;;1.00;;
12846;SDS011;6492;48.128;8.320;2024-03-23T22:27:10;1.30;;;1.00;;
12846;SDS011;6492;48.128;8.320;2024-03-23T22:31:11;0.70;;;0.70;;
12846;SDS011;6492;48.128;8.320;2024-03-23T22:35:13;1.90;;;1.20;;
12846;SDS011;6492;48.128;8.320;2024-03-23T22:39:16;0.97;;;0.87;;
12846;SDS011;6492;48.128;8.320;2024-03-23T22:43:20;2.23;;;1.23;;
12846;SDS011;6492;48.128;8.320;2024-03-23T22:47:22;2.10;;;0.97;;
12846;SDS011;6492;48.128;8.320;2024-03-23T22:51:24;2.27;;;0.97;;
12846;SDS011;6492;48.128;8.320;2024-03-23T22:55:27;3.23;;;1.30;;
12846;SDS011;6492;48.128;8.320;2024-03-23T22:59:31;2.00;;;1.30;;
12846;SDS011;6492;48.128;8.320;2024-03-23T23:03:33;3.27;;;1.17;;
12846;SDS011;6492;48.128;8.320;2024-03-23T23:07:35;3.20;;;1.90;;
12846;SDS011;6492;48.128;8.320;2024-03-23T23:11:38;3.93;;;1.90;;
12846;SDS011;6492;48.128;8.320;2024-03-23T23:15:41;1.23;;;1.13;;
12846;SDS011;6492;48.128;8.320;2024-03-23T23:19:43;1.57;;;1.10;;
12846;SDS011;6492;48.128;8.320;2024-03-23T23:23:46;0.60;;;0.60;;
12846;SDS011;6492;48.128;8.320;2024-03-23T23:27:49;1.00;;;0.90;;
12846;SDS011;6492;48.128;8.320;2024-03-23T23:31:52;0.57;;;0.57;;
12846;SDS011;6492;48.128;8.320;2024-03-23T23:35:53;1.60;;;0.53;;
12846;SDS011;6492;48.128;8.320;2024-03-23T23:39:54;0.70;;;0.70;;
12846;SDS011;6492;48.128;8.320;2024-03-23T23:43:57;1.23;;;0.90;;
12846;SDS011;6492;48.128;8.320;2024-03-23T23:47:59;0.87;;;0.87;;
12846;SDS011;6492;48.128;8.320;2024-03-23T23:52:01;2.10;;;1.30;;
12846;SDS011;6492;48.128;8.320;2024-03-23T23:56:04;1.20;;;1.10;;
